Quick Links (Output Below):   Max & Min Temps   /   Climate Reports   /   Zone Forecasts
River Forecasts   /   Forestry Forecasts   /   Aviation Forecasts   /   Radars   /   Features

Terminal Aerodrome Forecast (Fort Smith)

Pick a Site:
Arkadelphia | El Dorado | Fayetteville | Fort Smith | Harrison | Highfill | Hot Springs | Jonesboro
Little Rock | Monticello | Mountain Home | Pine Bluff | Texarkana
 Forecast 

KFSM 311122Z 3112/0112 07003KT P6SM SCT250
     FM311800 03005KT P6SM VCTS SCT050CB PROB30 3121/0103 3SM -TSRA
      BKN040CB
     FM010300 04005KT P6SM VCSH BKN050 BKN100=


 Latest METARs (Observations) 
How to Decode METARs
14Z KFSM 311353Z 09003KT 7SM CLR 25/23 A3004 RMK AO2 SLP165
         T02500228
         
13Z KFSM 311253Z 05003KT 3SM BR CLR 24/22 A3004 RMK AO2 SLP165
         T02390222
         
12Z KFSM 311153Z COR 08003KT 10SM R25/3500VP6000FT FG CLR 23/22 A3003
         RMK AO2 SLP162 T02280217 10250 20228 55000
         
11Z KFSM 311053Z 07003KT 6SM BR CLR 23/22 A3003 RMK AO2 SLP161
         T02280217
         
10Z KFSM 310953Z AUTO 06004KT 9SM CLR 23/22 A3002 RMK AO2 SLP161
         T02330217
         
09Z KFSM 310853Z AUTO 06003KT 9SM CLR 24/22 A3003 RMK AO2 SLP162
         T02390222 58003
         
08Z KFSM 310753Z AUTO 08003KT 10SM CLR 24/22 A3003 RMK AO2 SLP164
         T02440222
         
07Z KFSM 310653Z AUTO 00000KT 10SM CLR 24/22 A3004 RMK AO2 SLP165
         T02390222
         
06Z KFSM 310553Z AUTO 00000KT 10SM CLR 25/22 A3004 RMK AO2 SLP166
         T02500222 10294 20244 403440222 53004
         
05Z KFSM 310453Z AUTO 07003KT 10SM CLR 24/22 A3003 RMK AO2 SLP163
         T02440222
         
***** Today's Observations (Above) *****


Back to Main Page
http://www.srh.noaa.gov/lzk/qfcst.php

USA.gov is the U.S. government's official web portal to all federal, state and local government web resources and services.